Westby, Wisconsin
Current Conditions -  °F | °C
As of 8:34 PM on Wednesday 17 Dec 2014 (Local Time) from KY51 Reporting Station
Overcast Overcast  
Wind Chill:   Ceiling: 1400
Heat Index: 18°   Visibility: 10mi
Dew Point: 14°   Wind: 6mph
Humidity: 85%   Direction: 340°NNW
Pressure: 30.26"   Gusts: NA
Location:  43.66°N, 90.85°W
Report Text: KY51 180234Z AUTO 34005KT 10SM OVC014 M08/M10 A3026 RMK AO1 T10801101
Loading
Personal Weather Stations






























Interactive Weather Map New forecast layout! Learn more

10-Day Weather Forecast

Advertisements
Track Severe Weather on mobile